Latest Weather Observations for East Sale

IDV60801

Issued at 11:05 am EST Wednesday 30 July 2014 (issued every 30 minutes, with the page automatically refreshed every 10 minutes)

About weather observations | Map of weather stations | Latest weather observations for VIC | Other Formats
Station Details ID: 085072 Name: EAST SALE AIRPORT Lat: -38.12 Lon: 147.13 Height: 4.6 m
Data from the previous 72 hours. | See also: Recent months at East Sale
Date/Time
EST
Temp
°C
App
Temp
°C
Dew
Point
Rel
Hum
%
Delta-T
°C
Wind Press
QNH
hPa
Press
MSL
hPa
Rain
since 9 am
mm
Dir
 
Spd
km/h
Gust
km/h
Spd
kts
Gust
kts
30/11:00am 17.4 12.8 8.2 54 4.7 W 22 30 12 16 1011.0 - 0.0
30/10:30am 16.8 12.5 9.3 61 3.9 W 22 26 12 14 1011.1 - 0.0
30/10:00am 16.3 11.5 8.7 60 3.9 WNW 24 30 13 16 1011.0 - 0.0
30/09:30am 14.5 10.2 9.4 71 2.6 WNW 22 26 12 14 1010.8 - 0.0
30/09:00am 13.3 9.0 9.4 77 2.0 W 22 28 12 15 1011.0 1011.0 0.0
30/08:30am 12.6 9.2 9.0 79 1.8 WNW 17 20 9 11 1011.2 - 0.0
30/08:00am 12.1 7.7 8.9 81 1.6 W 22 30 12 16 1010.7 - 0.0
30/07:30am 12.1 5.6 8.9 81 1.6 W 33 46 18 25 1010.6 - 0.0
30/07:04am 12.7 6.0 9.8 82 1.5 WSW 35 43 19 23 1010.9 - 0.0
30/07:00am 13.3 10.7 9.4 77 2.0 NW 13 19 7 10 1011.0 - 0.0
30/06:30am 12.7 11.3 9.6 81 1.6 N 7 11 4 6 1010.4 - 0.0
30/06:00am 12.5 10.8 10.0 85 1.3 NW 9 11 5 6 1010.2 1010.3 0.0
30/05:30am 12.5 9.4 10.2 86 1.2 WSW 17 20 9 11 1009.9 - 0.0
30/05:00am 11.9 9.1 9.9 87 1.0 W 15 20 8 11 1009.8 - 0.0
30/04:30am 12.9 8.1 10.2 84 1.4 WSW 26 33 14 18 1009.5 - 0.0
30/04:00am 12.7 9.5 10.0 84 1.4 W 17 22 9 12 1009.4 - 0.0
30/03:30am 13.2 9.0 9.7 79 1.8 W 22 32 12 17 1009.1 - 0.0
30/03:00am 14.0 8.6 9.5 74 2.3 WSW 28 43 15 23 1009.1 1009.1 0.0
30/02:30am 14.1 9.4 9.2 72 2.5 WSW 24 35 13 19 1009.5 - 0.0
30/02:00am 15.7 11.0 7.9 59 3.9 W 22 33 12 18 1008.8 - 0.0
30/01:30am 15.6 9.4 7.8 59 3.9 W 30 35 16 19 1008.6 - 0.0
30/01:00am 15.7 10.2 7.7 59 4.0 WNW 26 32 14 17 1008.6 - 0.0
30/12:30am 15.7 10.2 7.7 59 4.0 WNW 26 33 14 18 1008.3 - 0.0
30/12:00am 15.3 11.0 7.9 61 3.7 WNW 20 28 11 15 1008.3 1008.4 0.0
 
Date/Time
EST
Temp
°C
App
Temp
°C
Dew
Point
Rel
Hum
%
Delta-T
°C
Wind Press
QNH
hPa
Press
MSL
hPa
Rain
since 9 am
mm
Dir
 
Spd
km/h
Gust
km/h
Spd
kts
Gust
kts
29/11:30pm 15.0 11.3 8.0 63 3.5 NW 17 20 9 11 1008.2 - 0.0
29/11:00pm 14.6 10.8 7.5 62 3.5 NW 17 20 9 11 1008.2 - 0.0
29/10:30pm 14.6 10.2 7.5 62 3.5 NW 20 26 11 14 1007.8 - 0.0
29/10:00pm 14.5 10.3 7.4 62 3.5 NW 19 24 10 13 1007.7 - 0.0
29/09:30pm 15.0 9.8 7.3 60 3.8 NW 24 37 13 20 1007.4 - 0.0
29/09:00pm 15.7 8.0 7.0 56 4.3 WNW 37 52 20 28 1006.9 1007.0 0.0
29/08:30pm 16.1 7.5 6.5 53 4.7 WNW 41 52 22 28 1007.2 - 0.0
29/08:00pm 15.9 7.7 6.5 53 4.6 WNW 39 52 21 28 1007.0 - 0.0
29/07:30pm 14.9 7.4 6.4 57 4.1 NW 35 48 19 26 1006.6 - 0.0
29/07:00pm 15.4 7.1 6.1 54 4.5 NW 39 50 21 27 1006.0 - 0.0
29/06:38pm 15.3 6.2 5.9 53 4.5 NW 43 61 23 33 1006.0 - 0.0
29/06:30pm 15.1 6.1 6.2 55 4.3 WNW 43 56 23 30 1005.9 - 0.0
29/06:00pm 15.3 6.6 5.9 53 4.5 NW 41 61 22 33 1005.4 1005.5 0.0
29/05:54pm 15.5 7.1 5.7 52 4.7 NW 39 57 21 31 1005.4 - 0.0
29/05:30pm 15.3 7.7 5.9 53 4.5 NW 35 46 19 25 1005.1 - 0.0
29/05:00pm 15.8 7.4 5.6 50 4.9 NW 39 54 21 29 1005.0 - 0.0
29/04:30pm 15.8 7.9 6.1 52 4.7 NW 37 50 20 27 1004.9 - 0.0
29/04:00pm 16.0 7.7 6.1 52 4.8 WNW 39 56 21 30 1005.0 - 0.0
29/03:55pm 16.1 8.2 6.0 51 4.9 WNW 37 56 20 30 1005.0 - 0.0
29/03:30pm 16.1 9.1 6.0 51 4.9 NW 32 43 17 23 1005.1 - 0.0
29/03:00pm 16.0 9.8 6.1 52 4.8 NW 28 39 15 21 1005.2 1005.2 0.0
29/02:30pm 16.7 10.7 5.2 46 5.5 NW 26 39 14 21 1005.0 - 0.0
29/02:00pm 16.6 10.8 6.1 50 5.1 NW 26 43 14 23 1005.5 - 0.0
29/01:30pm 16.3 9.3 6.0 50 5.0 NNW 32 43 17 23 1005.4 - 0.0
29/01:11pm 17.1 10.1 6.0 48 5.4 NW 32 50 17 27 1005.7 - 0.0
29/01:00pm 16.6 8.0 6.4 51 5.0 NW 41 52 22 28 1006.0 - 0.0
29/12:35pm 16.7 9.6 5.7 48 5.3 NNW 32 52 17 28 1006.5 - 0.0
29/12:30pm 16.9 10.3 6.0 48 5.3 NNW 30 39 16 21 1006.7 - 0.0
29/12:09pm 16.5 9.5 6.0 50 5.1 WNW 32 54 17 29 1007.4 - 0.0
29/12:00pm 17.1 10.7 6.8 50 5.1 NW 30 44 16 24 1007.6 1007.4 0.0
29/11:30am 17.3 9.7 6.0 47 5.5 NW 35 46 19 25 1007.6 - 0.0
29/11:17am 16.9 10.6 5.7 47 5.4 NNW 28 46 15 25 1007.3 - 0.0
29/11:00am 15.8 8.2 5.8 51 4.8 NNW 35 50 19 27 1007.2 - 0.0
29/10:30am 16.6 8.9 5.3 47 5.4 NW 35 52 19 28 1007.7 - 0.0
29/10:00am 16.7 8.4 4.1 43 5.9 NW 37 56 20 30 1008.2 - 0.0
29/09:52am 16.1 7.8 4.0 44 5.6 NW 37 56 20 30 1008.3 - 0.0
29/09:30am 16.2 9.6 4.2 45 5.6 NW 28 39 15 21 1008.7 - 0.0
29/09:19am 15.7 8.3 4.0 45 5.4 NW 32 44 17 24 1009.2 - 0.0
29/09:00am 15.6 11.9 4.2 46 5.3 NW 13 26 7 14 1009.5 1009.5 0.0
29/08:30am 13.8 8.8 4.5 53 4.3 NNW 20 30 11 16 1008.6 - 0.0
29/08:00am 13.3 6.6 3.8 52 4.3 NNW 28 39 15 21 1008.4 - 0.0
29/07:30am 12.8 5.6 3.1 51 4.3 NNW 30 37 16 20 1008.4 - 0.0
29/07:00am 12.5 6.4 2.7 51 4.3 NNW 24 32 13 17 1008.4 - 0.0
29/06:30am 12.5 6.3 2.4 50 4.4 NNW 24 30 13 16 1008.7 - 0.0
29/06:00am 12.0 5.4 2.3 51 4.2 NW 26 33 14 18 1008.4 1008.4 0.0
29/05:30am 12.9 5.2 2.1 48 4.7 NW 32 39 17 21 1008.4 - 0.0
29/05:00am 13.2 5.2 1.9 46 4.9 NW 33 44 18 24 1008.4 - 0.0
29/04:30am 12.9 5.0 2.4 49 4.6 NW 33 43 18 23 1008.3 - 0.0
29/04:00am 11.8 5.3 2.9 54 3.9 NW 26 35 14 19 1008.6 - 0.0
29/03:30am 10.0 3.7 3.9 66 2.7 WNW 26 33 14 18 1009.1 - 0.0
29/03:00am 9.2 4.3 3.9 69 2.3 WNW 19 20 10 11 1009.5 1009.5 0.0
29/02:30am 8.7 4.1 3.9 72 2.1 W 17 20 9 11 1009.9 - 0.0
29/02:00am 9.6 5.6 3.1 64 2.8 WSW 13 15 7 8 1010.4 - 0.0
29/01:30am 8.3 4.9 3.9 74 1.9 WSW 11 15 6 8 1010.7 - 0.0
29/01:00am 8.0 5.9 3.8 75 1.8 S 4 7 2 4 1011.0 - 0.0
29/12:30am 6.5 2.6 3.2 79 1.4 E 13 15 7 8 1011.4 - 0.0
29/12:00am 7.4 3.5 3.4 76 1.7 ENE 13 15 7 8 1011.7 1011.7 0.0
 
Date/Time
EST
Temp
°C
App
Temp
°C
Dew
Point
Rel
Hum
%
Delta-T
°C
Wind Press
QNH
hPa
Press
MSL
hPa
Rain
since 9 am
mm
Dir
 
Spd
km/h
Gust
km/h
Spd
kts
Gust
kts
28/11:30pm 7.6 6.3 4.1 78 1.5 CALM 0 9 0 5 1011.9 - 0.0
28/11:00pm 8.6 6.4 5.5 81 1.4 SW 6 7 3 4 1012.1 - 0.0
28/10:30pm 8.3 4.7 4.9 79 1.5 S 13 15 7 8 1012.1 - 0.0
28/10:00pm 8.9 5.3 4.9 76 1.8 SSE 13 15 7 8 1012.2 - 0.0
28/09:30pm 10.8 8.7 3.8 62 3.1 SW 4 7 2 4 1012.4 - 0.0
28/09:00pm 12.0 9.0 4.2 59 3.5 WSW 9 15 5 8 1012.2 1012.2 0.0
28/08:30pm 13.9 8.0 3.8 50 4.6 WNW 24 35 13 19 1011.9 - 0.0
28/08:00pm 14.3 9.1 3.5 48 4.9 WNW 20 28 11 15 1011.7 - 0.0
28/07:30pm 12.9 6.6 3.8 54 4.1 NW 26 32 14 17 1011.5 - 0.0
28/07:00pm 13.8 8.6 3.3 49 4.7 NW 20 30 11 16 1011.2 - 0.0
28/06:30pm 14.1 8.9 3.5 49 4.8 NW 20 26 11 14 1011.3 - 0.0
28/06:00pm 14.1 8.9 3.5 49 4.8 WNW 20 22 11 12 1011.9 1012.0 0.0
28/05:30pm 15.3 8.6 3.5 45 5.4 NW 28 35 15 19 1011.3 - 0.0
28/05:00pm 16.6 10.2 3.3 41 6.1 WNW 26 39 14 21 1011.2 - 0.0
28/04:30pm 17.2 12.2 4.8 44 5.9 NW 20 30 11 16 1011.0 - 0.0
28/04:00pm 18.0 12.5 4.0 39 6.6 NW 22 30 12 16 1011.2 - 0.0
28/03:30pm 18.6 12.2 3.4 36 7.1 NW 26 33 14 18 1011.4 - 0.0
28/03:00pm 18.9 13.8 4.2 37 7.0 NW 20 32 11 17 1011.5 1011.5 0.0
28/02:30pm 18.9 11.8 3.3 35 7.3 NW 30 39 16 21 1011.7 - 0.0
28/02:00pm 19.1 11.0 3.0 34 7.5 NW 35 46 19 25 1011.8 - 0.0
28/01:30pm 19.2 10.4 3.5 35 7.4 NW 39 50 21 27 1011.9 - 0.0
28/01:00pm 19.0 10.1 3.1 34 7.4 NW 39 54 21 29 1012.3 - 0.0
28/12:56pm 18.9 10.8 3.3 35 7.3 NW 35 54 19 29 1012.3 - 0.0
28/12:30pm 18.9 12.1 3.3 35 7.3 NW 28 43 15 23 1013.0 - 0.0
28/12:00pm 18.7 11.0 3.3 36 7.2 NW 33 44 18 24 1013.5 1013.5 0.0
28/11:29am 18.2 11.5 3.7 38 6.8 NW 28 46 15 25 1014.0 - 0.0
28/11:00am 16.9 13.1 6.0 48 5.3 NNE 15 20 8 11 1014.8 - 0.0
28/10:30am 16.1 12.4 6.5 53 4.7 N 15 20 8 11 1015.4 - 0.0
28/10:00am 15.0 11.7 6.3 56 4.2 N 13 19 7 10 1015.6 - 0.0
28/09:30am 14.0 10.6 6.0 58 3.8 N 13 19 7 10 1015.8 - 0.0
28/09:00am 12.7 9.0 4.6 58 3.7 N 13 17 7 9 1016.2 1016.2 0.0
28/08:30am 11.5 6.9 3.6 58 3.5 N 17 19 9 10 1016.3 - 0.0
28/08:00am 11.0 6.5 4.0 62 3.1 NNW 17 20 9 11 1016.5 - 0.0
28/07:30am 10.4 5.2 3.6 63 3.0 WNW 20 22 11 12 1016.4 - 0.0
28/07:00am 9.9 4.9 3.5 64 2.8 WNW 19 20 10 11 1016.5 - 0.0
28/06:30am 9.7 4.6 3.2 64 2.8 NW 19 20 10 11 1016.5 - 0.0
28/06:00am 9.7 4.1 3.5 65 2.7 NW 22 26 12 14 1016.4 1016.4 0.0
28/05:30am 9.4 3.8 3.4 66 2.6 NW 22 24 12 13 1016.3 - 0.0
28/05:00am 10.1 4.8 3.2 62 3.0 NW 20 24 11 13 1016.3 - 0.0
28/04:30am 6.2 3.9 2.8 79 1.4 N 4 11 2 6 1016.6 - 0.0
28/04:00am 5.0 2.3 2.8 86 0.9 E 6 9 3 5 1017.0 - 0.0
28/03:30am 6.4 3.7 2.8 78 1.5 S 6 7 3 4 1017.1 - 0.0
28/03:00am 5.8 0.3 2.1 77 1.5 NW 20 26 11 14 1017.1 1017.1 0.0
28/02:30am 4.5 1.5 2.0 84 1.0 NW 7 13 4 7 1017.5 - 0.0
28/02:00am 7.9 2.5 2.6 69 2.2 NNW 20 24 11 13 1017.7 - 0.0
28/01:30am 4.6 2.9 2.1 84 1.0 CALM 0 7 0 4 1018.0 - 0.0
28/01:00am 5.6 2.3 2.4 80 1.3 ENE 9 11 5 6 1018.3 - 0.0
28/12:30am 6.4 3.7 2.8 78 1.5 NNE 6 7 3 4 1018.6 - 0.0
28/12:00am 5.4 1.5 3.5 87 0.8 N 13 15 7 8 1018.9 1018.9 0.0
 
Date/Time
EST
Temp
°C
App
Temp
°C
Dew
Point
Rel
Hum
%
Delta-T
°C
Wind Press
QNH
hPa
Press
MSL
hPa
Rain
since 9 am
mm
Dir
 
Spd
km/h
Gust
km/h
Spd
kts
Gust
kts
27/11:30pm 9.3 5.3 3.0 65 2.7 N 13 17 7 9 1019.4 - 0.0
27/11:00pm 10.2 5.6 3.6 63 2.9 NNW 17 20 9 11 1019.7 - 0.0
27/10:30pm 8.4 4.0 2.7 67 2.4 N 15 15 8 8 1020.2 - 0.0
27/10:00pm 6.8 4.1 3.5 79 1.4 NNW 7 9 4 5 1020.6 - 0.0
27/09:30pm 9.7 6.1 3.2 64 2.8 NNW 11 13 6 7 1020.5 - 0.0
27/09:00pm 10.4 7.3 3.6 63 3.0 NW 9 11 5 6 1020.6 1020.6 0.0
27/08:30pm 11.4 7.2 3.7 59 3.4 NW 15 19 8 10 1020.5 - 0.0
27/08:00pm 11.2 6.8 4.6 64 3.0 NNW 17 19 9 10 1020.3 - 0.0
27/07:30pm 10.1 7.1 6.0 76 1.9 NW 11 13 6 7 1020.5 - 0.0
27/07:00pm 10.8 7.8 5.8 71 2.3 WNW 11 13 6 7 1020.9 - 0.0
27/06:30pm 11.5 8.5 5.9 68 2.6 W 11 13 6 7 1021.2 - 0.0
27/06:00pm 11.9 8.9 5.9 66 2.8 W 11 15 6 8 1021.1 1021.1 0.0
27/05:30pm 12.6 8.0 5.5 62 3.3 W 19 22 10 12 1020.7 - 0.0
27/05:00pm 13.4 8.6 4.7 55 4.0 WNW 19 22 10 12 1020.1 - 0.0
27/04:30pm 14.1 9.1 4.6 52 4.4 WNW 20 30 11 16 1020.1 - 0.0
27/04:00pm 15.0 10.9 4.5 49 4.9 NW 15 20 8 11 1020.0 - 0.0
27/03:30pm 15.5 13.1 7.2 57 4.1 NNW 9 13 5 7 1020.0 - 0.0
27/03:00pm 16.2 13.9 7.6 56 4.3 NNW 9 15 5 8 1020.3 1020.3 0.0
27/02:30pm 15.7 12.3 7.5 58 4.1 WNW 15 17 8 9 1020.4 - 0.0
27/02:00pm 15.5 12.0 7.0 57 4.2 W 15 19 8 10 1020.7 - 0.0
27/01:30pm 15.1 11.5 6.7 57 4.1 W 15 22 8 12 1021.1 - 0.0
27/01:00pm 15.2 11.8 6.1 54 4.4 WSW 13 20 7 11 1021.2 - 0.0
27/12:30pm 14.7 11.0 6.2 56 4.1 W 15 19 8 10 1022.0 - 0.0
27/12:00pm 14.4 10.1 6.8 60 3.7 W 19 24 10 13 1023.0 1022.9 0.0
27/11:30am 14.3 10.2 6.2 58 3.9 W 17 22 9 12 1023.6 - 0.0

Other Formats:

Comma delimited format used in spreadsheet applications
http://www.bom.gov.au/fwo/IDV60801/IDV60801.94907.axf

JavaScript Object Notation format (JSON) in row-major order
http://www.bom.gov.au/fwo/IDV60801/IDV60801.94907.json